sensor_id;sensor_type;location;lat;lon;timestamp;P1;durP1;ratioP1;P2;durP2;ratioP2
13584;SDS011;6863;48.402;9.994;2022-08-19T00:01:32;26.20;;;23.70;;
13584;SDS011;6863;48.402;9.994;2022-08-19T00:03:59;27.52;;;24.77;;
13584;SDS011;6863;48.402;9.994;2022-08-19T00:06:27;28.30;;;25.42;;
13584;SDS011;6863;48.402;9.994;2022-08-19T00:08:53;26.80;;;24.10;;
13584;SDS011;6863;48.402;9.994;2022-08-19T00:11:20;28.30;;;25.50;;
13584;SDS011;6863;48.402;9.994;2022-08-19T00:13:46;29.65;;;26.63;;
13584;SDS011;6863;48.402;9.994;2022-08-19T00:16:13;30.08;;;26.98;;
13584;SDS011;6863;48.402;9.994;2022-08-19T00:18:39;28.30;;;25.48;;
13584;SDS011;6863;48.402;9.994;2022-08-19T00:21:05;30.48;;;27.35;;
13584;SDS011;6863;48.402;9.994;2022-08-19T00:23:33;29.63;;;26.67;;
13584;SDS011;6863;48.402;9.994;2022-08-19T00:26:01;30.63;;;27.70;;
13584;SDS011;6863;48.402;9.994;2022-08-19T00:28:28;28.58;;;25.73;;
13584;SDS011;6863;48.402;9.994;2022-08-19T00:30:53;28.90;;;26.10;;
13584;SDS011;6863;48.402;9.994;2022-08-19T00:33:20;27.52;;;24.70;;
13584;SDS011;6863;48.402;9.994;2022-08-19T00:35:46;28.73;;;25.75;;
13584;SDS011;6863;48.402;9.994;2022-08-19T00:38:12;27.80;;;25.08;;
13584;SDS011;6863;48.402;9.994;2022-08-19T00:40:37;28.48;;;25.77;;
13584;SDS011;6863;48.402;9.994;2022-08-19T00:43:07;28.42;;;25.48;;
13584;SDS011;6863;48.402;9.994;2022-08-19T00:45:38;28.77;;;26.02;;
13584;SDS011;6863;48.402;9.994;2022-08-19T00:48:06;29.35;;;26.45;;
13584;SDS011;6863;48.402;9.994;2022-08-19T00:50:32;29.42;;;26.50;;
13584;SDS011;6863;48.402;9.994;2022-08-19T00:52:59;27.33;;;24.80;;
13584;SDS011;6863;48.402;9.994;2022-08-19T00:55:29;28.00;;;25.30;;
13584;SDS011;6863;48.402;9.994;2022-08-19T00:57:58;28.63;;;25.83;;
13584;SDS011;6863;48.402;9.994;2022-08-19T01:00:30;29.92;;;26.98;;
13584;SDS011;6863;48.402;9.994;2022-08-19T01:03:01;28.77;;;25.98;;
13584;SDS011;6863;48.402;9.994;2022-08-19T01:05:31;30.55;;;27.58;;
13584;SDS011;6863;48.402;9.994;2022-08-19T01:07:58;28.65;;;25.90;;
13584;SDS011;6863;48.402;9.994;2022-08-19T01:10:27;28.83;;;26.00;;
13584;SDS011;6863;48.402;9.994;2022-08-19T01:12:57;28.20;;;25.48;;
13584;SDS011;6863;48.402;9.994;2022-08-19T01:15:26;29.98;;;26.90;;
13584;SDS011;6863;48.402;9.994;2022-08-19T01:17:55;29.73;;;26.73;;
13584;SDS011;6863;48.402;9.994;2022-08-19T01:20:24;28.52;;;25.63;;
13584;SDS011;6863;48.402;9.994;2022-08-19T01:22:54;31.00;;;27.80;;
13584;SDS011;6863;48.402;9.994;2022-08-19T01:25:27;28.33;;;25.73;;
13584;SDS011;6863;48.402;9.994;2022-08-19T01:27:57;29.50;;;26.50;;
13584;SDS011;6863;48.402;9.994;2022-08-19T01:30:27;28.05;;;25.25;;
13584;SDS011;6863;48.402;9.994;2022-08-19T01:32:55;30.58;;;27.60;;
13584;SDS011;6863;48.402;9.994;2022-08-19T01:35:22;29.55;;;26.45;;
13584;SDS011;6863;48.402;9.994;2022-08-19T01:37:50;28.77;;;25.90;;
13584;SDS011;6863;48.402;9.994;2022-08-19T01:40:27;28.80;;;26.00;;
13584;SDS011;6863;48.402;9.994;2022-08-19T01:42:55;27.35;;;24.65;;
13584;SDS011;6863;48.402;9.994;2022-08-19T01:45:23;26.83;;;24.17;;
13584;SDS011;6863;48.402;9.994;2022-08-19T01:47:50;27.83;;;25.02;;
13584;SDS011;6863;48.402;9.994;2022-08-19T01:50:16;27.90;;;24.95;;
13584;SDS011;6863;48.402;9.994;2022-08-19T01:55:18;27.67;;;24.77;;
13584;SDS011;6863;48.402;9.994;2022-08-19T01:57:49;28.08;;;25.38;;
13584;SDS011;6863;48.402;9.994;2022-08-19T02:00:21;27.52;;;24.83;;
13584;SDS011;6863;48.402;9.994;2022-08-19T02:02:48;27.85;;;24.98;;
13584;SDS011;6863;48.402;9.994;2022-08-19T02:05:14;27.40;;;24.67;;
13584;SDS011;6863;48.402;9.994;2022-08-19T02:07:41;27.50;;;24.67;;
13584;SDS011;6863;48.402;9.994;2022-08-19T02:10:08;28.80;;;25.98;;
13584;SDS011;6863;48.402;9.994;2022-08-19T02:12:37;29.05;;;26.02;;
13584;SDS011;6863;48.402;9.994;2022-08-19T02:15:03;28.25;;;25.38;;
13584;SDS011;6863;48.402;9.994;2022-08-19T02:17:29;29.23;;;26.27;;
13584;SDS011;6863;48.402;9.994;2022-08-19T02:19:56;28.88;;;25.98;;
13584;SDS011;6863;48.402;9.994;2022-08-19T02:22:22;29.67;;;26.55;;
13584;SDS011;6863;48.402;9.994;2022-08-19T02:24:50;30.00;;;27.00;;
13584;SDS011;6863;48.402;9.994;2022-08-19T02:27:16;29.42;;;26.55;;
13584;SDS011;6863;48.402;9.994;2022-08-19T02:29:42;31.52;;;27.00;;
13584;SDS011;6863;48.402;9.994;2022-08-19T02:32:08;30.42;;;27.17;;
13584;SDS011;6863;48.402;9.994;2022-08-19T02:34:33;30.67;;;27.55;;
13584;SDS011;6863;48.402;9.994;2022-08-19T02:36:59;29.73;;;26.75;;
13584;SDS011;6863;48.402;9.994;2022-08-19T02:39:25;31.00;;;27.63;;
13584;SDS011;6863;48.402;9.994;2022-08-19T02:41:51;31.55;;;28.15;;
13584;SDS011;6863;48.402;9.994;2022-08-19T02:44:17;30.13;;;27.02;;
13584;SDS011;6863;48.402;9.994;2022-08-19T02:46:44;29.60;;;26.40;;
13584;SDS011;6863;48.402;9.994;2022-08-19T02:49:12;29.48;;;26.30;;
13584;SDS011;6863;48.402;9.994;2022-08-19T02:51:40;29.55;;;26.55;;
13584;SDS011;6863;48.402;9.994;2022-08-19T02:54:09;30.38;;;27.13;;
13584;SDS011;6863;48.402;9.994;2022-08-19T02:56:37;31.80;;;28.50;;
13584;SDS011;6863;48.402;9.994;2022-08-19T02:59:05;32.80;;;28.23;;
13584;SDS011;6863;48.402;9.994;2022-08-19T03:01:33;30.92;;;27.30;;
13584;SDS011;6863;48.402;9.994;2022-08-19T03:04:00;30.75;;;27.42;;
13584;SDS011;6863;48.402;9.994;2022-08-19T03:06:29;30.98;;;27.67;;
13584;SDS011;6863;48.402;9.994;2022-08-19T03:08:55;30.83;;;27.73;;
13584;SDS011;6863;48.402;9.994;2022-08-19T03:11:26;31.35;;;28.05;;
13584;SDS011;6863;48.402;9.994;2022-08-19T03:13:56;33.25;;;29.48;;
13584;SDS011;6863;48.402;9.994;2022-08-19T03:16:25;32.10;;;28.63;;
13584;SDS011;6863;48.402;9.994;2022-08-19T03:18:55;34.65;;;28.52;;
13584;SDS011;6863;48.402;9.994;2022-08-19T03:21:25;33.85;;;30.02;;
13584;SDS011;6863;48.402;9.994;2022-08-19T03:23:54;30.48;;;27.40;;
13584;SDS011;6863;48.402;9.994;2022-08-19T03:26:20;32.95;;;28.83;;
13584;SDS011;6863;48.402;9.994;2022-08-19T03:28:46;32.90;;;29.25;;
13584;SDS011;6863;48.402;9.994;2022-08-19T03:31:15;34.40;;;28.73;;
13584;SDS011;6863;48.402;9.994;2022-08-19T03:33:42;32.63;;;28.85;;
13584;SDS011;6863;48.402;9.994;2022-08-19T03:36:12;31.23;;;28.00;;
13584;SDS011;6863;48.402;9.994;2022-08-19T03:38:41;32.38;;;28.40;;
13584;SDS011;6863;48.402;9.994;2022-08-19T03:41:09;32.03;;;28.77;;
13584;SDS011;6863;48.402;9.994;2022-08-19T03:43:41;30.17;;;26.95;;
13584;SDS011;6863;48.402;9.994;2022-08-19T03:46:08;36.58;;;31.40;;
13584;SDS011;6863;48.402;9.994;2022-08-19T03:48:39;31.92;;;28.60;;
13584;SDS011;6863;48.402;9.994;2022-08-19T03:51:07;33.72;;;29.88;;
13584;SDS011;6863;48.402;9.994;2022-08-19T03:53:33;34.78;;;30.15;;
13584;SDS011;6863;48.402;9.994;2022-08-19T03:55:59;37.47;;;32.38;;
13584;SDS011;6863;48.402;9.994;2022-08-19T03:58:26;34.90;;;30.85;;
13584;SDS011;6863;48.402;9.994;2022-08-19T04:00:57;36.58;;;30.92;;
13584;SDS011;6863;48.402;9.994;2022-08-19T04:03:24;33.80;;;29.10;;
13584;SDS011;6863;48.402;9.994;2022-08-19T04:05:51;33.72;;;30.08;;
13584;SDS011;6863;48.402;9.994;2022-08-19T04:08:18;33.35;;;29.35;;
13584;SDS011;6863;48.402;9.994;2022-08-19T04:10:45;34.10;;;30.10;;
13584;SDS011;6863;48.402;9.994;2022-08-19T04:13:14;35.80;;;31.33;;
13584;SDS011;6863;48.402;9.994;2022-08-19T04:15:42;33.13;;;29.42;;
13584;SDS011;6863;48.402;9.994;2022-08-19T04:18:09;34.47;;;29.60;;
13584;SDS011;6863;48.402;9.994;2022-08-19T04:20:45;36.78;;;31.58;;
13584;SDS011;6863;48.402;9.994;2022-08-19T04:23:13;36.15;;;31.20;;
13584;SDS011;6863;48.402;9.994;2022-08-19T04:25:40;33.63;;;29.08;;
13584;SDS011;6863;48.402;9.994;2022-08-19T04:28:07;34.10;;;29.45;;
13584;SDS011;6863;48.402;9.994;2022-08-19T04:30:48;35.22;;;29.42;;
13584;SDS011;6863;48.402;9.994;2022-08-19T04:33:19;32.33;;;28.60;;
13584;SDS011;6863;48.402;9.994;2022-08-19T04:35:47;35.20;;;30.17;;
13584;SDS011;6863;48.402;9.994;2022-08-19T04:38:14;33.70;;;30.13;;
13584;SDS011;6863;48.402;9.994;2022-08-19T04:40:42;36.20;;;31.42;;
13584;SDS011;6863;48.402;9.994;2022-08-19T04:43:28;33.85;;;29.85;;
13584;SDS011;6863;48.402;9.994;2022-08-19T04:45:54;36.85;;;30.55;;
13584;SDS011;6863;48.402;9.994;2022-08-19T04:48:20;35.45;;;31.20;;
13584;SDS011;6863;48.402;9.994;2022-08-19T04:50:57;35.65;;;29.80;;
13584;SDS011;6863;48.402;9.994;2022-08-19T04:53:30;34.25;;;29.83;;
13584;SDS011;6863;48.402;9.994;2022-08-19T04:55:58;36.83;;;32.20;;
13584;SDS011;6863;48.402;9.994;2022-08-19T04:58:26;36.65;;;30.52;;
13584;SDS011;6863;48.402;9.994;2022-08-19T05:00:53;35.92;;;29.85;;
13584;SDS011;6863;48.402;9.994;2022-08-19T05:03:19;35.40;;;30.17;;
13584;SDS011;6863;48.402;9.994;2022-08-19T05:05:46;32.92;;;29.42;;
13584;SDS011;6863;48.402;9.994;2022-08-19T05:08:16;37.30;;;31.08;;
13584;SDS011;6863;48.402;9.994;2022-08-19T05:10:45;33.75;;;29.90;;
13584;SDS011;6863;48.402;9.994;2022-08-19T05:13:15;37.33;;;30.50;;
13584;SDS011;6863;48.402;9.994;2022-08-19T05:15:42;35.47;;;29.42;;
13584;SDS011;6863;48.402;9.994;2022-08-19T05:18:08;35.30;;;28.90;;
13584;SDS011;6863;48.402;9.994;2022-08-19T05:20:52;33.42;;;29.77;;
13584;SDS011;6863;48.402;9.994;2022-08-19T05:23:36;32.65;;;29.15;;
13584;SDS011;6863;48.402;9.994;2022-08-19T05:26:02;37.38;;;30.35;;
13584;SDS011;6863;48.402;9.994;2022-08-19T05:28:29;35.75;;;29.52;;
13584;SDS011;6863;48.402;9.994;2022-08-19T05:30:55;34.45;;;29.05;;
13584;SDS011;6863;48.402;9.994;2022-08-19T05:33:21;33.28;;;29.23;;
13584;SDS011;6863;48.402;9.994;2022-08-19T05:35:47;38.08;;;30.75;;
13584;SDS011;6863;48.402;9.994;2022-08-19T05:38:14;37.17;;;31.38;;
13584;SDS011;6863;48.402;9.994;2022-08-19T05:40:43;40.65;;;33.92;;
13584;SDS011;6863;48.402;9.994;2022-08-19T05:43:12;38.08;;;31.60;;
13584;SDS011;6863;48.402;9.994;2022-08-19T05:45:41;38.40;;;32.50;;
13584;SDS011;6863;48.402;9.994;2022-08-19T05:48:07;41.30;;;33.92;;
13584;SDS011;6863;48.402;9.994;2022-08-19T05:50:36;37.42;;;32.50;;
13584;SDS011;6863;48.402;9.994;2022-08-19T05:53:03;37.90;;;32.45;;
13584;SDS011;6863;48.402;9.994;2022-08-19T05:55:29;41.97;;;33.97;;
13584;SDS011;6863;48.402;9.994;2022-08-19T05:57:54;40.88;;;34.05;;
13584;SDS011;6863;48.402;9.994;2022-08-19T06:00:20;35.78;;;31.00;;
13584;SDS011;6863;48.402;9.994;2022-08-19T06:02:46;38.28;;;30.45;;
13584;SDS011;6863;48.402;9.994;2022-08-19T06:05:11;38.45;;;31.23;;
13584;SDS011;6863;48.402;9.994;2022-08-19T06:07:38;39.85;;;31.20;;
13584;SDS011;6863;48.402;9.994;2022-08-19T06:10:05;38.65;;;33.22;;
13584;SDS011;6863;48.402;9.994;2022-08-19T06:12:33;40.97;;;32.05;;
13584;SDS011;6863;48.402;9.994;2022-08-19T06:15:00;39.83;;;31.77;;
13584;SDS011;6863;48.402;9.994;2022-08-19T06:17:29;39.75;;;33.50;;
13584;SDS011;6863;48.402;9.994;2022-08-19T06:19:55;39.17;;;33.05;;
13584;SDS011;6863;48.402;9.994;2022-08-19T06:22:21;38.00;;;31.38;;
13584;SDS011;6863;48.402;9.994;2022-08-19T06:24:46;39.50;;;30.75;;
13584;SDS011;6863;48.402;9.994;2022-08-19T06:27:12;36.35;;;29.63;;
13584;SDS011;6863;48.402;9.994;2022-08-19T06:29:37;34.95;;;30.70;;
13584;SDS011;6863;48.402;9.994;2022-08-19T06:32:03;38.97;;;32.05;;
13584;SDS011;6863;48.402;9.994;2022-08-19T06:34:30;40.08;;;32.10;;
13584;SDS011;6863;48.402;9.994;2022-08-19T06:36:58;37.65;;;30.88;;
13584;SDS011;6863;48.402;9.994;2022-08-19T06:39:27;40.53;;;32.45;;
13584;SDS011;6863;48.402;9.994;2022-08-19T06:41:59;38.13;;;31.70;;
13584;SDS011;6863;48.402;9.994;2022-08-19T06:44:27;36.10;;;30.02;;
13584;SDS011;6863;48.402;9.994;2022-08-19T06:46:54;37.33;;;29.95;;
13584;SDS011;6863;48.402;9.994;2022-08-19T06:49:21;37.60;;;31.92;;
13584;SDS011;6863;48.402;9.994;2022-08-19T06:51:48;35.47;;;30.88;;
13584;SDS011;6863;48.402;9.994;2022-08-19T06:54:16;36.30;;;31.00;;
13584;SDS011;6863;48.402;9.994;2022-08-19T06:56:43;35.03;;;30.38;;
13584;SDS011;6863;48.402;9.994;2022-08-19T06:59:12;35.88;;;30.90;;
13584;SDS011;6863;48.402;9.994;2022-08-19T07:01:49;33.22;;;29.15;;
13584;SDS011;6863;48.402;9.994;2022-08-19T07:04:18;36.45;;;31.45;;
13584;SDS011;6863;48.402;9.994;2022-08-19T07:06:46;36.55;;;30.70;;
13584;SDS011;6863;48.402;9.994;2022-08-19T07:09:13;36.10;;;30.88;;
13584;SDS011;6863;48.402;9.994;2022-08-19T07:11:58;37.00;;;29.92;;
13584;SDS011;6863;48.402;9.994;2022-08-19T07:14:25;37.33;;;30.52;;
13584;SDS011;6863;48.402;9.994;2022-08-19T07:16:52;35.95;;;30.23;;
13584;SDS011;6863;48.402;9.994;2022-08-19T07:19:23;36.63;;;28.30;;
13584;SDS011;6863;48.402;9.994;2022-08-19T07:21:52;33.78;;;27.90;;
13584;SDS011;6863;48.402;9.994;2022-08-19T07:24:19;30.33;;;26.90;;
13584;SDS011;6863;48.402;9.994;2022-08-19T07:26:49;29.58;;;25.90;;
13584;SDS011;6863;48.402;9.994;2022-08-19T07:29:16;31.75;;;27.10;;
13584;SDS011;6863;48.402;9.994;2022-08-19T07:31:42;31.30;;;26.55;;
13584;SDS011;6863;48.402;9.994;2022-08-19T07:34:09;31.45;;;25.70;;
13584;SDS011;6863;48.402;9.994;2022-08-19T07:36:40;29.88;;;25.98;;
13584;SDS011;6863;48.402;9.994;2022-08-19T07:39:09;28.83;;;24.55;;
13584;SDS011;6863;48.402;9.994;2022-08-19T07:41:37;28.60;;;25.35;;
13584;SDS011;6863;48.402;9.994;2022-08-19T07:44:03;29.50;;;26.38;;
13584;SDS011;6863;48.402;9.994;2022-08-19T07:46:33;28.00;;;25.00;;
13584;SDS011;6863;48.402;9.994;2022-08-19T07:49:02;26.38;;;23.30;;
13584;SDS011;6863;48.402;9.994;2022-08-19T07:51:29;29.27;;;25.25;;
13584;SDS011;6863;48.402;9.994;2022-08-19T07:53:55;29.08;;;24.63;;
13584;SDS011;6863;48.402;9.994;2022-08-19T07:56:21;30.15;;;26.80;;
13584;SDS011;6863;48.402;9.994;2022-08-19T07:58:49;28.02;;;25.13;;
13584;SDS011;6863;48.402;9.994;2022-08-19T08:01:17;31.05;;;27.50;;
13584;SDS011;6863;48.402;9.994;2022-08-19T08:03:46;86.07;;;30.33;;
13584;SDS011;6863;48.402;9.994;2022-08-19T08:06:30;34.20;;;27.15;;
13584;SDS011;6863;48.402;9.994;2022-08-19T08:09:16;34.53;;;27.30;;
13584;SDS011;6863;48.402;9.994;2022-08-19T08:11:53;33.92;;;28.77;;
13584;SDS011;6863;48.402;9.994;2022-08-19T08:14:29;38.28;;;30.40;;
13584;SDS011;6863;48.402;9.994;2022-08-19T08:16:57;37.13;;;30.42;;
13584;SDS011;6863;48.402;9.994;2022-08-19T08:19:24;36.97;;;31.13;;
13584;SDS011;6863;48.402;9.994;2022-08-19T08:21:51;39.63;;;30.67;;
13584;SDS011;6863;48.402;9.994;2022-08-19T08:24:18;37.97;;;30.23;;
13584;SDS011;6863;48.402;9.994;2022-08-19T08:26:45;33.67;;;30.05;;
13584;SDS011;6863;48.402;9.994;2022-08-19T08:29:11;33.00;;;28.27;;
13584;SDS011;6863;48.402;9.994;2022-08-19T08:31:37;31.55;;;27.70;;
13584;SDS011;6863;48.402;9.994;2022-08-19T08:34:07;32.53;;;26.88;;
13584;SDS011;6863;48.402;9.994;2022-08-19T08:36:35;34.58;;;29.83;;
13584;SDS011;6863;48.402;9.994;2022-08-19T08:39:07;35.42;;;30.92;;
13584;SDS011;6863;48.402;9.994;2022-08-19T08:41:58;32.75;;;28.90;;
13584;SDS011;6863;48.402;9.994;2022-08-19T08:44:45;34.30;;;29.17;;
13584;SDS011;6863;48.402;9.994;2022-08-19T08:47:22;35.90;;;29.27;;
13584;SDS011;6863;48.402;9.994;2022-08-19T08:49:56;34.30;;;29.05;;
13584;SDS011;6863;48.402;9.994;2022-08-19T08:52:29;32.85;;;27.92;;
13584;SDS011;6863;48.402;9.994;2022-08-19T08:55:03;31.23;;;27.80;;
13584;SDS011;6863;48.402;9.994;2022-08-19T08:57:37;31.45;;;27.50;;
13584;SDS011;6863;48.402;9.994;2022-08-19T09:00:19;32.47;;;28.23;;
13584;SDS011;6863;48.402;9.994;2022-08-19T09:02:51;31.13;;;27.83;;
13584;SDS011;6863;48.402;9.994;2022-08-19T09:05:18;29.73;;;26.23;;
13584;SDS011;6863;48.402;9.994;2022-08-19T09:13:34;30.75;;;27.23;;
13584;SDS011;6863;48.402;9.994;2022-08-19T09:16:25;31.33;;;27.73;;
13584;SDS011;6863;48.402;9.994;2022-08-19T09:18:53;34.35;;;30.70;;
13584;SDS011;6863;48.402;9.994;2022-08-19T09:21:23;31.42;;;27.65;;
13584;SDS011;6863;48.402;9.994;2022-08-19T09:23:50;32.55;;;28.13;;
13584;SDS011;6863;48.402;9.994;2022-08-19T09:26:17;30.70;;;27.45;;
13584;SDS011;6863;48.402;9.994;2022-08-19T09:28:45;30.13;;;26.65;;
13584;SDS011;6863;48.402;9.994;2022-08-19T09:31:13;34.67;;;29.02;;
13584;SDS011;6863;48.402;9.994;2022-08-19T09:33:41;30.90;;;27.50;;
13584;SDS011;6863;48.402;9.994;2022-08-19T09:36:10;31.05;;;27.75;;
13584;SDS011;6863;48.402;9.994;2022-08-19T09:38:38;30.00;;;26.80;;
13584;SDS011;6863;48.402;9.994;2022-08-19T09:41:11;31.05;;;27.75;;
13584;SDS011;6863;48.402;9.994;2022-08-19T09:43:38;29.17;;;26.20;;
13584;SDS011;6863;48.402;9.994;2022-08-19T09:46:06;39.83;;;27.65;;
13584;SDS011;6863;48.402;9.994;2022-08-19T09:48:34;30.98;;;27.60;;
13584;SDS011;6863;48.402;9.994;2022-08-19T09:51:08;30.15;;;27.00;;
13584;SDS011;6863;48.402;9.994;2022-08-19T09:53:35;28.58;;;25.60;;
13584;SDS011;6863;48.402;9.994;2022-08-19T09:56:02;31.23;;;27.88;;
13584;SDS011;6863;48.402;9.994;2022-08-19T09:58:29;30.38;;;26.85;;
13584;SDS011;6863;48.402;9.994;2022-08-19T10:00:56;30.25;;;27.15;;
13584;SDS011;6863;48.402;9.994;2022-08-19T10:03:23;29.33;;;25.95;;
13584;SDS011;6863;48.402;9.994;2022-08-19T10:05:49;29.42;;;26.00;;
13584;SDS011;6863;48.402;9.994;2022-08-19T10:08:18;30.60;;;27.23;;
13584;SDS011;6863;48.402;9.994;2022-08-19T10:10:46;30.17;;;27.10;;
13584;SDS011;6863;48.402;9.994;2022-08-19T10:13:14;27.67;;;24.80;;
13584;SDS011;6863;48.402;9.994;2022-08-19T10:15:41;29.13;;;25.92;;
13584;SDS011;6863;48.402;9.994;2022-08-19T10:18:07;30.73;;;27.40;;
13584;SDS011;6863;48.402;9.994;2022-08-19T10:20:33;30.30;;;26.30;;
13584;SDS011;6863;48.402;9.994;2022-08-19T10:23:01;30.85;;;27.45;;
13584;SDS011;6863;48.402;9.994;2022-08-19T10:25:27;30.13;;;27.05;;
13584;SDS011;6863;48.402;9.994;2022-08-19T10:27:52;30.27;;;27.25;;
13584;SDS011;6863;48.402;9.994;2022-08-19T10:30:18;30.45;;;27.15;;
13584;SDS011;6863;48.402;9.994;2022-08-19T10:32:44;30.70;;;27.50;;
13584;SDS011;6863;48.402;9.994;2022-08-19T10:35:11;30.77;;;27.65;;
13584;SDS011;6863;48.402;9.994;2022-08-19T10:37:38;28.73;;;25.83;;
13584;SDS011;6863;48.402;9.994;2022-08-19T10:40:05;28.55;;;25.52;;
13584;SDS011;6863;48.402;9.994;2022-08-19T10:42:32;27.55;;;24.70;;
13584;SDS011;6863;48.402;9.994;2022-08-19T10:44:58;27.33;;;24.45;;
13584;SDS011;6863;48.402;9.994;2022-08-19T10:47:24;28.13;;;25.23;;
13584;SDS011;6863;48.402;9.994;2022-08-19T10:49:49;27.70;;;24.83;;
13584;SDS011;6863;48.402;9.994;2022-08-19T10:52:48;30.10;;;27.00;;
13584;SDS011;6863;48.402;9.994;2022-08-19T10:55:14;28.17;;;25.10;;
13584;SDS011;6863;48.402;9.994;2022-08-19T10:57:59;29.55;;;26.45;;
13584;SDS011;6863;48.402;9.994;2022-08-19T11:00:24;31.45;;;28.08;;
13584;SDS011;6863;48.402;9.994;2022-08-19T11:02:50;35.83;;;30.08;;
13584;SDS011;6863;48.402;9.994;2022-08-19T11:05:17;34.60;;;29.65;;
13584;SDS011;6863;48.402;9.994;2022-08-19T11:07:43;31.95;;;28.55;;
13584;SDS011;6863;48.402;9.994;2022-08-19T11:10:10;35.03;;;31.33;;
13584;SDS011;6863;48.402;9.994;2022-08-19T11:12:38;33.42;;;29.40;;
13584;SDS011;6863;48.402;9.994;2022-08-19T11:15:05;33.85;;;30.30;;
13584;SDS011;6863;48.402;9.994;2022-08-19T11:17:33;36.17;;;31.65;;
13584;SDS011;6863;48.402;9.994;2022-08-19T11:19:59;42.10;;;33.47;;
13584;SDS011;6863;48.402;9.994;2022-08-19T11:22:28;36.20;;;32.22;;
13584;SDS011;6863;48.402;9.994;2022-08-19T11:24:54;37.70;;;33.03;;
13584;SDS011;6863;48.402;9.994;2022-08-19T11:27:23;38.47;;;32.95;;
13584;SDS011;6863;48.402;9.994;2022-08-19T11:29:49;44.40;;;36.28;;
13584;SDS011;6863;48.402;9.994;2022-08-19T11:32:15;42.25;;;33.45;;
13584;SDS011;6863;48.402;9.994;2022-08-19T11:34:41;45.30;;;37.00;;
13584;SDS011;6863;48.402;9.994;2022-08-19T11:37:07;47.80;;;36.97;;
13584;SDS011;6863;48.402;9.994;2022-08-19T11:39:34;49.13;;;39.63;;
13584;SDS011;6863;48.402;9.994;2022-08-19T11:42:01;48.58;;;39.53;;
13584;SDS011;6863;48.402;9.994;2022-08-19T11:44:52;51.15;;;40.60;;
13584;SDS011;6863;48.402;9.994;2022-08-19T11:47:18;49.97;;;39.08;;
13584;SDS011;6863;48.402;9.994;2022-08-19T11:49:45;53.35;;;40.72;;
13584;SDS011;6863;48.402;9.994;2022-08-19T11:52:11;51.38;;;39.95;;
13584;SDS011;6863;48.402;9.994;2022-08-19T11:54:37;49.88;;;40.13;;
13584;SDS011;6863;48.402;9.994;2022-08-19T11:57:03;51.42;;;39.25;;
13584;SDS011;6863;48.402;9.994;2022-08-19T11:59:29;51.80;;;40.70;;
13584;SDS011;6863;48.402;9.994;2022-08-19T12:01:55;51.72;;;40.13;;
13584;SDS011;6863;48.402;9.994;2022-08-19T12:04:21;47.22;;;37.33;;
13584;SDS011;6863;48.402;9.994;2022-08-19T12:06:48;50.35;;;38.22;;
13584;SDS011;6863;48.402;9.994;2022-08-19T12:09:15;45.70;;;37.63;;
13584;SDS011;6863;48.402;9.994;2022-08-19T12:11:42;44.15;;;36.53;;
13584;SDS011;6863;48.402;9.994;2022-08-19T12:14:09;47.28;;;38.67;;
13584;SDS011;6863;48.402;9.994;2022-08-19T12:16:38;44.97;;;35.70;;
13584;SDS011;6863;48.402;9.994;2022-08-19T12:19:04;42.08;;;35.35;;
13584;SDS011;6863;48.402;9.994;2022-08-19T12:21:31;36.90;;;32.83;;
13584;SDS011;6863;48.402;9.994;2022-08-19T12:23:59;39.47;;;34.30;;
13584;SDS011;6863;48.402;9.994;2022-08-19T12:26:26;43.58;;;37.05;;
13584;SDS011;6863;48.402;9.994;2022-08-19T12:28:53;37.40;;;33.05;;
13584;SDS011;6863;48.402;9.994;2022-08-19T12:31:19;39.83;;;33.60;;
13584;SDS011;6863;48.402;9.994;2022-08-19T12:33:45;36.42;;;32.38;;
13584;SDS011;6863;48.402;9.994;2022-08-19T12:36:13;38.63;;;34.25;;
13584;SDS011;6863;48.402;9.994;2022-08-19T12:38:40;37.70;;;33.60;;
13584;SDS011;6863;48.402;9.994;2022-08-19T12:41:08;39.65;;;33.88;;
13584;SDS011;6863;48.402;9.994;2022-08-19T12:43:36;51.00;;;45.28;;
13584;SDS011;6863;48.402;9.994;2022-08-19T12:46:02;61.70;;;54.70;;
13584;SDS011;6863;48.402;9.994;2022-08-19T12:48:29;35.03;;;31.33;;
13584;SDS011;6863;48.402;9.994;2022-08-19T12:50:55;32.53;;;29.10;;
13584;SDS011;6863;48.402;9.994;2022-08-19T12:53:21;29.98;;;26.88;;
13584;SDS011;6863;48.402;9.994;2022-08-19T12:55:47;31.13;;;27.80;;
13584;SDS011;6863;48.402;9.994;2022-08-19T12:58:12;29.30;;;26.30;;
13584;SDS011;6863;48.402;9.994;2022-08-19T13:00:38;26.83;;;24.08;;
13584;SDS011;6863;48.402;9.994;2022-08-19T13:03:04;22.67;;;20.38;;
13584;SDS011;6863;48.402;9.994;2022-08-19T13:05:31;24.65;;;22.35;;
13584;SDS011;6863;48.402;9.994;2022-08-19T13:07:58;23.20;;;20.90;;
13584;SDS011;6863;48.402;9.994;2022-08-19T13:10:29;23.52;;;21.35;;
13584;SDS011;6863;48.402;9.994;2022-08-19T13:12:59;24.80;;;22.33;;
13584;SDS011;6863;48.402;9.994;2022-08-19T13:15:26;26.08;;;23.40;;
13584;SDS011;6863;48.402;9.994;2022-08-19T13:17:56;23.23;;;20.65;;
13584;SDS011;6863;48.402;9.994;2022-08-19T13:20:23;18.85;;;17.15;;
13584;SDS011;6863;48.402;9.994;2022-08-19T13:22:49;18.20;;;16.50;;
13584;SDS011;6863;48.402;9.994;2022-08-19T13:25:15;16.45;;;15.05;;
13584;SDS011;6863;48.402;9.994;2022-08-19T13:27:44;17.55;;;15.85;;
13584;SDS011;6863;48.402;9.994;2022-08-19T13:30:10;14.32;;;13.02;;
13584;SDS011;6863;48.402;9.994;2022-08-19T13:32:57;15.10;;;13.80;;
13584;SDS011;6863;48.402;9.994;2022-08-19T13:35:35;15.07;;;13.68;;
13584;SDS011;6863;48.402;9.994;2022-08-19T13:38:02;15.27;;;13.82;;
13584;SDS011;6863;48.402;9.994;2022-08-19T13:40:29;13.80;;;12.50;;
13584;SDS011;6863;48.402;9.994;2022-08-19T13:42:56;14.23;;;12.80;;
13584;SDS011;6863;48.402;9.994;2022-08-19T13:45:23;13.25;;;12.05;;
13584;SDS011;6863;48.402;9.994;2022-08-19T13:47:51;12.40;;;11.30;;
13584;SDS011;6863;48.402;9.994;2022-08-19T13:50:19;14.40;;;13.10;;
13584;SDS011;6863;48.402;9.994;2022-08-19T13:52:47;14.60;;;13.38;;
13584;SDS011;6863;48.402;9.994;2022-08-19T13:55:13;16.00;;;14.52;;
13584;SDS011;6863;48.402;9.994;2022-08-19T13:57:40;17.10;;;15.50;;
13584;SDS011;6863;48.402;9.994;2022-08-19T14:00:16;17.00;;;15.50;;
13584;SDS011;6863;48.402;9.994;2022-08-19T14:02:43;18.45;;;16.75;;
13584;SDS011;6863;48.402;9.994;2022-08-19T14:05:11;18.40;;;16.73;;
13584;SDS011;6863;48.402;9.994;2022-08-19T14:07:38;18.33;;;16.55;;
13584;SDS011;6863;48.402;9.994;2022-08-19T14:10:04;18.55;;;16.85;;
13584;SDS011;6863;48.402;9.994;2022-08-19T14:12:32;19.67;;;17.77;;
13584;SDS011;6863;48.402;9.994;2022-08-19T14:14:58;22.10;;;19.90;;
13584;SDS011;6863;48.402;9.994;2022-08-19T14:17:24;19.50;;;17.70;;
13584;SDS011;6863;48.402;9.994;2022-08-19T14:19:50;19.65;;;17.77;;
13584;SDS011;6863;48.402;9.994;2022-08-19T14:22:22;18.92;;;17.02;;
13584;SDS011;6863;48.402;9.994;2022-08-19T14:24:47;20.27;;;18.17;;
13584;SDS011;6863;48.402;9.994;2022-08-19T14:27:15;20.90;;;18.67;;
13584;SDS011;6863;48.402;9.994;2022-08-19T14:29:40;19.88;;;17.98;;
13584;SDS011;6863;48.402;9.994;2022-08-19T14:32:06;20.27;;;18.17;;
13584;SDS011;6863;48.402;9.994;2022-08-19T14:34:31;20.63;;;18.65;;
13584;SDS011;6863;48.402;9.994;2022-08-19T14:36:58;21.02;;;18.85;;
13584;SDS011;6863;48.402;9.994;2022-08-19T14:39:24;21.70;;;19.60;;
13584;SDS011;6863;48.402;9.994;2022-08-19T14:41:50;21.77;;;19.70;;
13584;SDS011;6863;48.402;9.994;2022-08-19T14:44:16;22.80;;;20.50;;
13584;SDS011;6863;48.402;9.994;2022-08-19T14:46:41;19.80;;;17.85;;
13584;SDS011;6863;48.402;9.994;2022-08-19T14:49:08;21.55;;;19.42;;